»·PEaware :: DFGCW KRDM-KEUG

DFGCW :: KRDM-KEUG

FLIGHT INFORMATION

Flight Status: Arrived
Operator: Unknown
More flights by this operator :: More flights under this callsign
Pilot: Klaus A. (15485)
Aircraft: PILATUS PC-12 EAGLE
(PC12)
More flights by this aircraft type
Origin: KRDM Roberts
United States
Destination: KEUG Mahlon Sweet
United States
More flights between these airports :: More routes between these airports
Route: +DSD EUG
File this flight plan on PilotEdge
Remarks: / G Custom weather
Altitude:
(Current/Filed)
14,000ft
Speed:
(Current/Filed)
230kts
Departed: 16-Jun-18 10:03 AM
Arrived: 16-Jun-18 10:42 AM
Distance/Time
Traveled:
89nm/0:39
Distance/Time
To Go:
Arrived

Flight Plot

Page will automatically refresh every two minutes.

Flight plan parsing failed; only flown route is shown


Map Options




Map Legend


Flown Route
Filed Route
Departure Airport
Arrival Airport
Navaid (VOR, NDB)
Fix

Horizontal Profiles

Position Reports

Time Latitude Longitude Heading Altitude Ground
Speed
16-Jun-18 09:42 44.258480 -121.156074 211 3082ft 0kts
16-Jun-18 09:43 44.258480 -121.156074 211 3082ft 0kts
16-Jun-18 09:44 44.258480 -121.156074 211 3082ft 0kts
16-Jun-18 09:45 44.258480 -121.156074 211 3082ft 0kts
16-Jun-18 09:46 44.258480 -121.156074 211 3082ft 0kts
16-Jun-18 09:47 44.258480 -121.156074 211 3082ft 0kts
16-Jun-18 09:48 44.258480 -121.156074 211 3082ft 0kts
16-Jun-18 09:49 44.258480 -121.156074 211 3082ft 0kts
16-Jun-18 09:50 44.258480 -121.156074 211 3082ft 0kts
16-Jun-18 09:51 44.258480 -121.156074 211 3082ft 0kts
16-Jun-18 09:52 44.258480 -121.156074 211 3082ft 0kts
16-Jun-18 09:53 44.258480 -121.156074 211 3082ft 0kts
16-Jun-18 09:54 44.258480 -121.156074 211 3082ft 0kts
16-Jun-18 09:55 44.258480 -121.156074 211 3082ft 0kts
16-Jun-18 09:56 44.257632 -121.155137 124 3083ft 13kts
16-Jun-18 09:57 44.255573 -121.150752 131 3082ft 8kts
16-Jun-18 09:58 44.254551 -121.152583 241 3082ft 14kts
16-Jun-18 09:59 44.252879 -121.150442 121 3082ft 25kts
16-Jun-18 10:00 44.248084 -121.139813 122 3082ft 18kts
16-Jun-18 10:01 44.248162 -121.139098 34 3082ft 0kts
16-Jun-18 10:02 44.248218 -121.139050 29 3082ft 4kts
16-Jun-18 10:03 44.254995 -121.155268 295 3480ft 108kts
16-Jun-18 10:04 44.258340 -121.209327 266 5035ft 165kts
16-Jun-18 10:05 44.253990 -121.274488 269 6907ft 174kts
16-Jun-18 10:06 44.249675 -121.344765 267 8484ft 190kts
16-Jun-18 10:07 44.255020 -121.415024 314 9966ft 190kts
16-Jun-18 10:08 44.276414 -121.482851 283 11477ft 196kts
16-Jun-18 10:09 44.286549 -121.558555 283 12799ft 202kts
16-Jun-18 10:10 44.294909 -121.636650 252 13961ft 212kts
16-Jun-18 10:11 44.254669 -121.705547 225 14007ft 253kts
16-Jun-18 10:12 44.223480 -121.791827 264 14001ft 265kts
16-Jun-18 10:13 44.216690 -121.894304 265 14008ft 266kts
16-Jun-18 10:14 44.210092 -121.996804 265 14008ft 267kts
16-Jun-18 10:15 44.203412 -122.099897 265 14008ft 267kts
16-Jun-18 10:16 44.196647 -122.202942 265 14008ft 267kts
16-Jun-18 10:17 44.189743 -122.305419 266 14037ft 267kts
16-Jun-18 10:18 44.182702 -122.410398 266 13269ft 280kts
16-Jun-18 10:19 44.175268 -122.519718 265 12100ft 287kts
16-Jun-18 10:20 44.157156 -122.624998 217 10868ft 287kts
16-Jun-18 10:21 44.085130 -122.657322 208 9775ft 282kts
16-Jun-18 10:22 44.021211 -122.712391 209 8754ft 259kts
16-Jun-18 10:23 43.963454 -122.762327 209 7656ft 249kts
16-Jun-18 10:24 43.911254 -122.807315 210 6600ft 248kts
16-Jun-18 10:25 43.863609 -122.848334 210 5990ft 219kts
16-Jun-18 10:26 43.813519 -122.891385 210 6000ft 225kts
16-Jun-18 10:27 43.768351 -122.932645 233 5923ft 224kts
16-Jun-18 10:28 43.774982 -123.009631 292 5387ft 187kts
16-Jun-18 10:29 43.787704 -123.064009 292 5400ft 177kts
16-Jun-18 10:30 43.805638 -123.131614 295 4407ft 198kts
16-Jun-18 10:31 43.825065 -123.200516 303 3981ft 174kts
16-Jun-18 10:32 43.865083 -123.214592 1 3542ft 161kts
16-Jun-18 10:33 43.911649 -123.215747 1 2882ft 158kts
16-Jun-18 10:34 43.943273 -123.216320 4 2881ft 86kts
16-Jun-18 10:35 43.970191 -123.216617 2 2198ft 103kts
16-Jun-18 10:36 43.996718 -123.217039 3 2204ft 97kts
16-Jun-18 10:37 44.023531 -123.217254 2 1678ft 103kts
16-Jun-18 10:38 44.050226 -123.218214 2 1288ft 99kts
16-Jun-18 10:39 44.078629 -123.218274 1 781ft 101kts
16-Jun-18 10:40 44.104415 -123.218725 2 552ft 93kts
16-Jun-18 10:41 44.124363 -123.219005 358 380ft 46kts
16-Jun-18 10:42 44.125108 -123.217579 147 380ft 0kts
16-Jun-18 10:43 44.125072 -123.217545 145 379ft 2kts
16-Jun-18 10:44 44.121376 -123.214444 154 380ft 12kts
16-Jun-18 10:45 44.122532 -123.211899 75 380ft 8kts
16-Jun-18 10:46 44.122595 -123.211775 27 379ft 0kts
16-Jun-18 10:47 44.122595 -123.211775 27 379ft 0kts
16-Jun-18 10:48 44.122595 -123.211775 27 379ft 0kts
16-Jun-18 10:49 44.122595 -123.211775 27 379ft 0kts
16-Jun-18 10:50 44.122595 -123.211775 27 379ft 0kts
16-Jun-18 10:51 44.122595 -123.211775 27 379ft 0kts
16-Jun-18 10:52 44.122595 -123.211775 27 379ft 0kts
16-Jun-18 10:53 44.122595 -123.211775 27 379ft 0kts

Navigation Log

Ident Type
Flight plan parsing failed, navigation log unavailable